Time;durP1;ratioP1;P1;durP2;ratioP2;P2;SDS_P1;SDS_P2;PMS_P1;PMS_P2;Temp;Humidity;BMP_temperature;BMP_pressure;BME280_temperature;BME280_humidity;BME280_pressure;Samples;Min_cycle;Max_cycle;Signal;HPM_P1;HPM_P2
2023/03/03 00:01:15;;;;;;;1.63;1.27;;;;;;;3.71;91.69;101703.00;4925114;29;20403;-51
2023/03/03 00:03:41;;;;;;;2.85;1.08;;;;;;;3.75;91.92;101698.72;4948895;28;20039;-49
2023/03/03 00:06:09;;;;;;;3.10;0.88;;;;;;;3.78;92.44;101697.31;4943721;28;20050;-50
2023/03/03 00:08:35;;;;;;;1.45;1.35;;;;;;;3.82;92.41;101687.69;4950382;29;20057;-50
2023/03/03 00:11:03;;;;;;;1.25;1.15;;;;;;;3.85;92.81;101687.94;4951712;29;20550;-49
2023/03/03 00:13:30;;;;;;;0.90;0.90;;;;;;;3.97;92.42;101690.97;4931767;29;20035;-49
2023/03/03 00:16:12;;;;;;;0.32;0.32;;;;;;;3.92;92.62;101685.72;4951308;29;20042;-54
2023/03/03 00:18:42;;;;;;;1.23;0.70;;;;;;;3.93;92.90;101686.53;4931250;28;20462;-52
2023/03/03 00:21:24;;;;;;;1.37;1.27;;;;;;;4.03;92.63;101695.16;4947126;29;20425;-51
2023/03/03 00:23:51;;;;;;;0.60;0.60;;;;;;;4.05;92.80;101697.53;4942041;28;20038;-50
2023/03/03 00:26:37;;;;;;;1.17;1.08;;;;;;;4.02;93.60;101703.47;4934375;29;20086;-47
2023/03/03 00:29:25;;;;;;;1.13;1.10;;;;;;;3.90;94.57;101700.41;4936248;28;20517;-48
2023/03/03 00:31:51;;;;;;;2.45;1.95;;;;;;;3.98;94.56;101686.44;4933466;28;20043;-46
2023/03/03 00:34:25;;;;;;;1.08;1.08;;;;;;;3.98;94.88;101687.25;4939189;28;20054;-49
2023/03/03 00:36:57;;;;;;;1.50;1.23;;;;;;;4.00;95.04;101689.63;4944246;28;20039;-48
2023/03/03 00:39:29;;;;;;;1.02;0.82;;;;;;;4.08;95.56;101691.66;4946099;28;20119;-50
2023/03/03 00:41:56;;;;;;;1.88;1.45;;;;;;;4.05;95.45;101703.69;4935423;29;20713;-48
2023/03/03 00:44:46;;;;;;;0.80;0.80;;;;;;;4.01;96.09;101693.84;4930178;29;20027;-48
2023/03/03 00:47:36;;;;;;;0.63;0.43;;;;;;;3.91;97.08;101688.69;4941032;29;20418;-51
2023/03/03 00:50:05;;;;;;;0.52;0.52;;;;;;;4.00;97.24;101684.28;4930013;28;20551;-52
2023/03/03 00:52:34;;;;;;;1.00;1.00;;;;;;;4.02;97.43;101688.28;4931935;28;20043;-54
2023/03/03 00:55:00;;;;;;;1.55;1.45;;;;;;;3.98;97.55;101686.44;4940518;28;20045;-46
2023/03/03 00:57:25;;;;;;;1.02;1.02;;;;;;;3.91;98.77;101684.13;4946172;28;20027;-50
2023/03/03 00:59:51;;;;;;;1.73;0.63;;;;;;;4.12;97.64;101684.69;4940196;28;20034;-52
2023/03/03 01:02:17;;;;;;;1.88;0.93;;;;;;;4.05;97.85;101686.88;4943763;28;20028;-52
2023/03/03 01:04:49;;;;;;;0.77;0.77;;;;;;;4.07;97.96;101685.53;4936283;28;20038;-51
2023/03/03 01:07:15;;;;;;;0.70;0.70;;;;;;;4.05;98.25;101687.69;4928711;29;20030;-52
2023/03/03 01:09:41;;;;;;;0.80;0.80;;;;;;;4.02;98.62;101685.59;4934502;29;20058;-53
2023/03/03 01:12:06;;;;;;;1.00;1.00;;;;;;;4.13;98.69;101681.72;4922453;29;20035;-52
2023/03/03 01:14:32;;;;;;;0.70;0.70;;;;;;;4.04;99.44;101686.13;4952962;29;20043;-53
2023/03/03 01:16:58;;;;;;;0.68;0.68;;;;;;;4.17;98.65;101671.28;4950943;29;20035;-51
2023/03/03 01:19:23;;;;;;;0.57;0.57;;;;;;;4.18;99.29;101672.88;4935267;29;20035;-50
2023/03/03 01:21:49;;;;;;;2.15;0.70;;;;;;;4.17;99.05;101668.63;4947694;28;20046;-48
2023/03/03 01:24:15;;;;;;;1.17;1.08;;;;;;;4.04;99.64;101666.66;4929811;29;20407;-52
2023/03/03 01:26:40;;;;;;;2.08;1.02;;;;;;;4.15;99.63;101652.13;4947662;29;20035;-47
2023/03/03 01:29:05;;;;;;;5.90;1.23;;;;;;;4.26;99.47;101672.22;4953299;29;20038;-47
2023/03/03 01:31:31;;;;;;;1.33;1.23;;;;;;;4.11;100.00;101667.91;4931467;28;20122;-49
2023/03/03 01:33:56;;;;;;;0.63;0.63;;;;;;;4.14;100.00;101661.22;4945741;29;20082;-49
2023/03/03 01:36:24;;;;;;;0.50;0.50;;;;;;;4.23;99.79;101652.28;4950085;28;20115;-48
2023/03/03 01:38:50;;;;;;;1.27;1.17;;;;;;;4.30;99.39;101651.91;4942026;28;20477;-50
2023/03/03 01:41:15;;;;;;;0.80;0.60;;;;;;;4.16;99.62;101651.06;4947711;29;20118;-51
2023/03/03 01:43:46;;;;;;;0.43;0.43;;;;;;;4.13;100.00;101644.41;4937400;28;20036;-47
2023/03/03 01:46:39;;;;;;;3.22;0.80;;;;;;;4.20;100.00;101646.75;4950030;28;20032;-53
2023/03/03 01:49:30;;;;;;;1.20;1.10;;;;;;;4.28;100.00;101646.88;4947022;28;20036;-47
2023/03/03 01:51:58;;;;;;;0.90;0.90;;;;;;;4.21;100.00;101648.31;4941801;28;20139;-48
2023/03/03 01:54:32;;;;;;;1.35;0.95;;;;;;;4.31;100.00;101648.97;4945456;28;20047;-51
2023/03/03 01:57:05;;;;;;;0.50;0.50;;;;;;;4.26;100.00;101643.69;4940979;29;20374;-51
2023/03/03 01:59:36;;;;;;;0.77;0.77;;;;;;;4.37;100.00;101637.16;4920632;29;20024;-49
2023/03/03 02:02:03;;;;;;;0.60;0.60;;;;;;;4.19;100.00;101651.28;4947428;28;20031;-50
2023/03/03 02:04:29;;;;;;;1.35;1.25;;;;;;;4.29;100.00;101642.34;4937505;29;20166;-51
2023/03/03 02:07:00;;;;;;;1.30;1.20;;;;;;;4.24;100.00;101642.44;4947624;28;20118;-54
2023/03/03 02:09:46;;;;;;;0.73;0.73;;;;;;;4.13;100.00;101640.97;4952428;29;20182;-49
2023/03/03 02:12:16;;;;;;;0.40;0.40;;;;;;;4.20;100.00;101649.41;4933246;29;20055;-50
2023/03/03 02:14:41;;;;;;;1.55;1.05;;;;;;;4.14;100.00;101638.00;4941105;29;20055;-49
2023/03/03 02:17:07;;;;;;;1.15;1.15;;;;;;;3.91;100.00;101643.38;4932350;29;20023;-53
2023/03/03 02:19:52;;;;;;;1.27;1.08;;;;;;;4.12;100.00;101639.38;4951081;28;20093;-50
2023/03/03 02:22:22;;;;;;;3.75;0.98;;;;;;;4.24;100.00;101639.75;4934139;29;20039;-50
2023/03/03 02:25:00;;;;;;;0.60;0.55;;;;;;;4.14;100.00;101639.88;4934133;29;20047;-50
2023/03/03 02:27:30;;;;;;;0.90;0.90;;;;;;;4.08;100.00;101641.03;4950048;29;20622;-51
2023/03/03 02:29:57;;;;;;;0.70;0.70;;;;;;;4.03;100.00;101649.06;4949888;28;20027;-49
2023/03/03 02:32:22;;;;;;;0.77;0.77;;;;;;;4.22;100.00;101645.34;4950199;28;20031;-49
2023/03/03 02:34:51;;;;;;;0.40;0.40;;;;;;;4.12;100.00;101637.50;4949671;28;20089;-51
2023/03/03 02:37:19;;;;;;;0.70;0.70;;;;;;;4.32;100.00;101641.75;4931146;29;20031;-49
2023/03/03 02:39:45;;;;;;;1.58;1.20;;;;;;;4.32;100.00;101636.41;4944771;28;20110;-48
2023/03/03 02:42:21;;;;;;;1.30;0.95;;;;;;;4.24;100.00;101643.19;4933197;29;20436;-49
2023/03/03 02:44:51;;;;;;;1.13;0.65;;;;;;;4.18;100.00;101643.56;4948754;28;20031;-49
2023/03/03 02:47:17;;;;;;;0.70;0.70;;;;;;;4.00;100.00;101647.78;4929119;28;20580;-50
2023/03/03 02:49:42;;;;;;;0.43;0.43;;;;;;;4.23;100.00;101646.16;4949028;28;20061;-50
2023/03/03 02:52:10;;;;;;;0.93;0.93;;;;;;;4.31;100.00;101643.66;4947985;28;20372;-49
2023/03/03 02:54:38;;;;;;;0.80;0.80;;;;;;;4.38;100.00;101651.28;4927082;29;20074;-50
2023/03/03 02:57:04;;;;;;;0.50;0.50;;;;;;;4.34;100.00;101647.59;4942531;29;20070;-49
2023/03/03 02:59:30;;;;;;;0.40;0.40;;;;;;;4.37;100.00;101641.69;4937183;28;20054;-47
2023/03/03 03:02:01;;;;;;;0.55;0.55;;;;;;;4.40;100.00;101644.56;4951999;28;20066;-47
2023/03/03 03:04:27;;;;;;;0.50;0.50;;;;;;;4.39;100.00;101656.31;4934313;29;20039;-51
2023/03/03 03:06:54;;;;;;;1.35;1.27;;;;;;;4.24;100.00;101653.09;4923047;29;20098;-47
2023/03/03 03:09:22;;;;;;;0.80;0.80;;;;;;;4.29;100.00;101645.81;4935741;29;20062;-48
2023/03/03 03:11:49;;;;;;;0.40;0.40;;;;;;;4.40;100.00;101652.56;4950746;29;20026;-47
2023/03/03 03:14:17;;;;;;;0.88;0.88;;;;;;;4.40;100.00;101665.09;4934254;29;20178;-48
2023/03/03 03:16:43;;;;;;;0.85;0.82;;;;;;;4.19;100.00;101651.28;4930654;29;20122;-49
2023/03/03 03:19:09;;;;;;;1.05;1.02;;;;;;;4.15;100.00;101655.59;4930327;29;20035;-50
2023/03/03 03:21:36;;;;;;;1.05;1.00;;;;;;;4.18;100.00;101654.22;4934734;28;20126;-51
2023/03/03 03:24:03;;;;;;;1.08;1.05;;;;;;;4.22;100.00;101655.25;4930699;29;20031;-49
2023/03/03 03:26:29;;;;;;;1.10;0.70;;;;;;;4.26;100.00;101653.56;4936434;28;20039;-51
2023/03/03 03:28:55;;;;;;;0.50;0.50;;;;;;;4.28;100.00;101654.06;4934566;29;20046;-54
2023/03/03 03:31:21;;;;;;;1.40;1.40;;;;;;;4.30;100.00;101666.03;4925257;29;20024;-51
2023/03/03 03:33:47;;;;;;;0.80;0.80;;;;;;;4.35;100.00;101660.66;4924189;29;20040;-49
2023/03/03 03:36:14;;;;;;;3.88;0.63;;;;;;;4.25;100.00;101662.66;4944806;28;20023;-54
2023/03/03 03:38:41;;;;;;;0.90;0.85;;;;;;;4.21;100.00;101658.97;4933098;29;20035;-50
2023/03/03 03:41:08;;;;;;;1.55;1.45;;;;;;;4.28;100.00;101654.06;4950032;28;20122;-49
2023/03/03 03:43:34;;;;;;;1.05;0.65;;;;;;;4.34;100.00;101653.72;4944209;28;20114;-51
2023/03/03 03:46:00;;;;;;;1.02;0.95;;;;;;;4.37;100.00;101647.03;4944095;28;20215;-52
2023/03/03 03:48:26;;;;;;;2.35;0.77;;;;;;;4.16;100.00;101657.16;4931277;29;20037;-52
2023/03/03 03:50:51;;;;;;;0.68;0.68;;;;;;;4.12;100.00;101650.81;4929714;29;20196;-56
2023/03/03 03:53:18;;;;;;;0.75;0.75;;;;;;;4.17;100.00;101664.09;4931334;29;20035;-55
2023/03/03 03:55:45;;;;;;;0.85;0.85;;;;;;;4.24;100.00;101655.75;4931689;29;20494;-49
2023/03/03 03:58:13;;;;;;;1.13;0.82;;;;;;;4.28;100.00;101656.72;4935959;29;20126;-52
2023/03/03 04:00:40;;;;;;;0.40;0.40;;;;;;;4.30;100.00;101646.56;4940058;28;20093;-53
2023/03/03 04:03:07;;;;;;;4.47;0.70;;;;;;;4.37;100.00;101644.38;4928450;29;20031;-49
2023/03/03 04:05:32;;;;;;;1.08;1.02;;;;;;;4.26;99.82;101626.91;4932443;29;20032;-52
2023/03/03 04:07:58;;;;;;;3.00;0.63;;;;;;;4.28;100.00;101635.41;4947098;29;20119;-54
2023/03/03 04:10:23;;;;;;;1.25;0.75;;;;;;;4.28;99.01;101628.22;4922948;29;20027;-50
2023/03/03 04:12:49;;;;;;;1.10;1.00;;;;;;;4.08;99.93;101638.38;4922094;29;20034;-53
2023/03/03 04:15:15;;;;;;;2.75;1.25;;;;;;;3.82;100.00;101635.22;4927419;29;20037;-50
2023/03/03 04:17:41;;;;;;;0.57;0.57;;;;;;;3.70;100.00;101642.81;4931038;29;20529;-49
2023/03/03 04:20:11;;;;;;;1.17;0.73;;;;;;;3.77;100.00;101629.16;4935127;28;21042;-49
2023/03/03 04:22:37;;;;;;;0.35;0.35;;;;;;;3.93;100.00;101636.69;4934382;29;20047;-52
2023/03/03 04:25:05;;;;;;;0.45;0.45;;;;;;;3.88;100.00;101631.44;4931603;28;20039;-52
2023/03/03 04:27:35;;;;;;;1.13;0.85;;;;;;;3.90;100.00;101639.94;4947416;28;20066;-54
2023/03/03 04:30:03;;;;;;;0.88;0.88;;;;;;;3.99;100.00;101640.88;4936157;29;20046;-50
2023/03/03 04:32:29;;;;;;;0.82;0.82;;;;;;;4.06;100.00;101640.53;4950471;28;20062;-54
2023/03/03 04:34:55;;;;;;;0.30;0.30;;;;;;;3.91;100.00;101644.16;4944161;28;20465;-49
2023/03/03 04:37:21;;;;;;;1.42;0.60;;;;;;;3.88;100.00;101639.41;4928824;29;20114;-49
2023/03/03 04:39:46;;;;;;;1.45;0.80;;;;;;;3.93;100.00;101642.00;4920244;29;20031;-50
2023/03/03 04:42:12;;;;;;;0.85;0.85;;;;;;;3.81;100.00;101644.31;4936109;28;20126;-49
2023/03/03 04:44:38;;;;;;;0.43;0.43;;;;;;;3.73;100.00;101644.94;4942919;28;20671;-50
2023/03/03 04:47:04;;;;;;;0.30;0.25;;;;;;;3.76;100.00;101640.88;4932615;28;20435;-52
2023/03/03 04:49:30;;;;;;;1.33;1.23;;;;;;;3.68;100.00;101643.09;4935996;29;20398;-52
2023/03/03 04:51:56;;;;;;;1.58;0.93;;;;;;;3.63;100.00;101637.06;4924662;29;20541;-51
2023/03/03 04:54:22;;;;;;;0.57;0.57;;;;;;;3.61;100.00;101644.53;4932899;29;20119;-50
2023/03/03 04:56:48;;;;;;;1.30;1.05;;;;;;;3.71;100.00;101648.94;4931257;29;20031;-50
2023/03/03 04:59:14;;;;;;;1.15;0.70;;;;;;;3.76;100.00;101652.34;4947446;28;20055;-50
2023/03/03 05:01:40;;;;;;;0.55;0.55;;;;;;;3.63;100.00;101653.03;4925211;29;20035;-52
2023/03/03 05:04:06;;;;;;;1.95;0.75;;;;;;;3.80;100.00;101649.91;4949072;28;20031;-54
2023/03/03 05:06:31;;;;;;;0.40;0.40;;;;;;;3.88;100.00;101658.06;4951121;28;20042;-52
2023/03/03 05:08:56;;;;;;;0.90;0.90;;;;;;;3.67;100.00;101654.06;4952550;28;20054;-49
2023/03/03 05:11:22;;;;;;;0.60;0.60;;;;;;;3.57;100.00;101644.31;4951387;28;20031;-50
2023/03/03 05:13:47;;;;;;;0.73;0.73;;;;;;;3.60;100.00;101649.06;4951435;28;20125;-51
2023/03/03 05:16:13;;;;;;;1.30;1.05;;;;;;;3.73;100.00;101649.47;4951141;28;20525;-49
2023/03/03 05:18:38;;;;;;;0.60;0.60;;;;;;;3.81;100.00;101649.63;4952278;28;20075;-49
2023/03/03 05:21:04;;;;;;;4.00;1.05;;;;;;;3.72;100.00;101646.00;4952578;28;20039;-50
2023/03/03 05:23:30;;;;;;;0.40;0.40;;;;;;;3.59;100.00;101652.81;4951412;28;20047;-50
2023/03/03 05:25:56;;;;;;;1.00;0.47;;;;;;;3.76;100.00;101647.00;4952859;28;20038;-54
2023/03/03 05:28:21;;;;;;;0.57;0.57;;;;;;;3.70;100.00;101650.81;4949549;28;20033;-54
2023/03/03 05:30:47;;;;;;;1.02;0.90;;;;;;;3.55;100.00;101650.97;4949418;29;20379;-52
2023/03/03 05:33:14;;;;;;;4.22;1.17;;;;;;;3.87;100.00;101653.03;4945869;28;20043;-52
2023/03/03 05:35:40;;;;;;;1.88;1.42;;;;;;;3.86;100.00;101651.44;4946297;28;20031;-52
2023/03/03 05:38:05;;;;;;;0.73;0.73;;;;;;;3.86;99.68;101649.56;4951764;28;20069;-51
2023/03/03 05:40:31;;;;;;;0.32;0.32;;;;;;;3.83;99.42;101657.34;4950108;29;20031;-53
2023/03/03 05:42:57;;;;;;;2.45;0.95;;;;;;;3.76;99.91;101662.19;4949493;29;20047;-54
2023/03/03 05:45:23;;;;;;;1.13;1.02;;;;;;;3.68;100.00;101660.94;4949529;28;20059;-52
2023/03/03 05:47:52;;;;;;;1.10;0.70;;;;;;;3.51;100.00;101661.41;4948534;29;20035;-52
2023/03/03 05:50:20;;;;;;;0.90;0.40;;;;;;;3.42;100.00;101663.13;4944131;28;20032;-49
2023/03/03 05:52:50;;;;;;;1.10;1.10;;;;;;;3.47;100.00;101671.03;4949534;29;20442;-49
2023/03/03 05:55:16;;;;;;;1.05;0.73;;;;;;;3.43;100.00;101659.34;4952382;28;20140;-49
2023/03/03 05:57:41;;;;;;;0.40;0.40;;;;;;;3.39;100.00;101647.69;4941627;28;20031;-54
2023/03/03 06:00:07;;;;;;;0.70;0.70;;;;;;;3.57;100.00;101651.50;4928770;29;20121;-51
2023/03/03 06:02:40;;;;;;;1.48;0.80;;;;;;;3.67;99.89;101659.38;4924178;29;20077;-50
2023/03/03 06:05:07;;;;;;;2.25;0.80;;;;;;;3.56;100.00;101657.91;4948380;28;20039;-49
2023/03/03 06:07:33;;;;;;;0.40;0.40;;;;;;;3.60;100.00;101651.72;4943585;28;20047;-50
2023/03/03 06:09:58;;;;;;;0.30;0.30;;;;;;;3.72;99.51;101655.88;4947214;29;20119;-53
2023/03/03 06:12:25;;;;;;;0.45;0.45;;;;;;;3.47;99.83;101670.22;4932890;29;20561;-52
2023/03/03 06:14:50;;;;;;;0.50;0.50;;;;;;;3.30;100.00;101670.69;4939858;28;20034;-51
2023/03/03 06:17:16;;;;;;;0.47;0.47;;;;;;;3.30;100.00;101673.34;4940872;28;20054;-49
2023/03/03 06:19:41;;;;;;;1.25;0.90;;;;;;;3.43;100.00;101672.66;4945930;28;20042;-50
2023/03/03 06:22:07;;;;;;;1.30;1.05;;;;;;;3.49;100.00;101679.53;4944620;29;20043;-51
2023/03/03 06:24:33;;;;;;;0.47;0.47;;;;;;;3.59;100.00;101676.78;4921091;28;20156;-50
2023/03/03 06:26:59;;;;;;;2.10;1.77;;;;;;;3.43;100.00;101677.19;4945279;28;20066;-52
2023/03/03 06:29:25;;;;;;;0.40;0.40;;;;;;;3.56;100.00;101681.88;4947969;28;20110;-50
2023/03/03 06:31:51;;;;;;;0.47;0.47;;;;;;;3.63;100.00;101685.78;4947959;28;20054;-47
2023/03/03 06:34:17;;;;;;;0.40;0.40;;;;;;;3.48;100.00;101690.47;4945370;28;20047;-50
2023/03/03 06:36:42;;;;;;;0.65;0.65;;;;;;;3.41;100.00;101685.47;4948188;29;20031;-48
2023/03/03 06:39:08;;;;;;;0.85;0.85;;;;;;;3.44;100.00;101682.25;4945194;29;20035;-51
2023/03/03 06:41:33;;;;;;;0.50;0.50;;;;;;;3.44;100.00;101692.91;4944918;28;20173;-54
2023/03/03 06:43:59;;;;;;;0.70;0.70;;;;;;;3.53;100.00;101680.56;4947185;28;20043;-48
2023/03/03 06:46:25;;;;;;;0.95;0.95;;;;;;;3.72;100.00;101682.50;4944267;28;20055;-48
2023/03/03 06:48:51;;;;;;;1.60;1.15;;;;;;;3.79;100.00;101688.28;4915001;29;22479;-48
2023/03/03 06:51:29;;;;;;;0.50;0.50;;;;;;;3.87;100.00;101691.09;4940703;28;20489;-50
2023/03/03 06:53:57;;;;;;;0.95;0.60;;;;;;;3.90;100.00;101697.72;4937192;28;20053;-51
2023/03/03 06:56:26;;;;;;;0.65;0.65;;;;;;;3.98;99.58;101689.91;4937227;28;20537;-52
2023/03/03 06:58:57;;;;;;;0.40;0.40;;;;;;;4.06;98.74;101691.16;4927576;28;20051;-49
2023/03/03 07:01:23;;;;;;;0.82;0.82;;;;;;;4.07;98.45;101690.06;4937093;28;20044;-48
2023/03/03 07:03:49;;;;;;;0.65;0.65;;;;;;;4.12;97.70;101687.34;4944236;28;20035;-49
2023/03/03 07:06:23;;;;;;;0.85;0.80;;;;;;;4.21;96.87;101690.97;4932900;28;20390;-51
2023/03/03 07:08:50;;;;;;;0.80;0.77;;;;;;;3.93;98.17;101697.19;4946624;28;20035;-46
2023/03/03 07:11:21;;;;;;;0.70;0.68;;;;;;;3.93;99.14;101713.94;4943737;28;20568;-49
2023/03/03 07:13:50;;;;;;;1.02;0.90;;;;;;;3.67;100.00;101724.09;4947537;28;20038;-47
2023/03/03 07:16:16;;;;;;;0.90;0.85;;;;;;;3.55;100.00;101736.97;4939613;28;20121;-49
2023/03/03 07:19:02;;;;;;;0.95;0.95;;;;;;;3.55;100.00;101739.66;4939786;28;20042;-50
2023/03/03 07:21:36;;;;;;;1.08;0.68;;;;;;;3.62;100.00;101736.63;4924385;28;20863;-49
2023/03/03 07:24:10;;;;;;;0.73;0.73;;;;;;;3.58;100.00;101736.41;4916452;28;20047;-51
2023/03/03 07:26:36;;;;;;;1.10;0.93;;;;;;;3.66;100.00;101733.13;4947606;28;20495;-49
2023/03/03 07:29:25;;;;;;;0.75;0.73;;;;;;;3.85;100.00;101735.91;4932414;29;20035;-47
2023/03/03 07:31:53;;;;;;;0.98;0.98;;;;;;;4.04;100.00;101736.75;4944128;28;20547;-47
2023/03/03 07:34:43;;;;;;;0.82;0.82;;;;;;;4.12;100.00;101730.75;4945379;28;20041;-46
2023/03/03 07:37:37;;;;;;;1.23;0.90;;;;;;;4.17;100.00;101743.25;4936785;29;20050;-49
2023/03/03 07:40:34;;;;;;;1.83;1.10;;;;;;;3.98;100.00;101743.19;4943504;28;20039;-48
2023/03/03 07:43:00;;;;;;;0.90;0.90;;;;;;;4.11;100.00;101739.84;4943400;28;20498;-50
2023/03/03 07:45:36;;;;;;;0.50;0.50;;;;;;;4.08;100.00;101745.75;4927452;29;20031;-50
2023/03/03 07:48:08;;;;;;;0.55;0.55;;;;;;;4.18;100.00;101750.19;4935015;28;20047;-51
2023/03/03 07:50:33;;;;;;;1.88;1.08;;;;;;;4.14;100.00;101751.81;4945027;28;20117;-49
2023/03/03 07:53:00;;;;;;;0.40;0.40;;;;;;;4.10;100.00;101738.28;4946823;28;20166;-50
2023/03/03 07:55:39;;;;;;;1.27;0.43;;;;;;;4.26;100.00;101736.19;4947062;28;20034;-50
2023/03/03 07:58:15;;;;;;;0.40;0.40;;;;;;;4.27;100.00;101727.94;4946824;28;20431;-50
2023/03/03 08:01:18;;;;;;;0.75;0.75;;;;;;;4.02;100.00;101735.44;4929868;29;20043;-51
2023/03/03 08:03:48;;;;;;;0.95;0.68;;;;;;;4.06;100.00;101734.59;4946380;28;20127;-52
2023/03/03 08:06:35;;;;;;;0.73;0.73;;;;;;;4.16;100.00;101733.69;4950862;28;20378;-52
2023/03/03 08:09:21;;;;;;;0.80;0.80;;;;;;;4.23;100.00;101742.09;4946070;28;20033;-49
2023/03/03 08:11:52;;;;;;;1.17;1.13;;;;;;;4.34;100.00;101743.56;4946544;28;20038;-48
2023/03/03 08:14:30;;;;;;;1.35;1.33;;;;;;;4.44;100.00;101730.91;4931644;28;20053;-50
2023/03/03 08:16:57;;;;;;;0.30;0.30;;;;;;;4.49;100.00;101735.41;4934591;28;20054;-49
2023/03/03 08:19:23;;;;;;;0.80;0.80;;;;;;;4.45;100.00;101731.72;4926508;28;20684;-49
2023/03/03 08:21:49;;;;;;;0.82;0.82;;;;;;;4.48;100.00;101729.25;4925132;28;20043;-51
2023/03/03 08:24:14;;;;;;;0.88;0.88;;;;;;;4.55;99.84;101737.69;4944384;28;20038;-47
2023/03/03 08:26:40;;;;;;;1.50;1.05;;;;;;;4.50;100.00;101735.09;4946751;28;20125;-48
2023/03/03 08:29:05;;;;;;;2.40;2.22;;;;;;;4.44;99.93;101735.44;4928690;28;20081;-51
2023/03/03 08:31:31;;;;;;;0.70;0.70;;;;;;;4.57;99.93;101740.84;4950257;28;20162;-50
2023/03/03 08:33:57;;;;;;;0.85;0.85;;;;;;;4.57;99.66;101732.06;4947507;28;20031;-51
2023/03/03 08:36:26;;;;;;;0.90;0.90;;;;;;;4.64;99.90;101727.19;4943999;28;20031;-50
2023/03/03 08:38:51;;;;;;;9.00;1.02;;;;;;;4.68;100.00;101724.72;4930936;29;20039;-52
2023/03/03 08:41:17;;;;;;;1.98;1.88;;;;;;;4.74;99.23;101727.03;4948722;28;20038;-52
2023/03/03 08:43:44;;;;;;;1.05;0.95;;;;;;;4.87;98.52;101730.84;4942898;28;20030;-55
2023/03/03 08:46:10;;;;;;;1.50;1.02;;;;;;;4.92;97.79;101728.88;4942419;28;20086;-51
2023/03/03 08:48:37;;;;;;;0.57;0.57;;;;;;;4.97;98.23;101728.03;4943713;28;20090;-49
2023/03/03 08:51:03;;;;;;;1.00;0.95;;;;;;;4.97;98.04;101723.50;4939909;28;20023;-51
2023/03/03 08:53:29;;;;;;;0.40;0.40;;;;;;;5.09;97.44;101723.81;4946768;28;20027;-52
2023/03/03 08:55:55;;;;;;;2.40;0.93;;;;;;;5.08;97.07;101727.56;4952049;29;20035;-53
2023/03/03 08:58:21;;;;;;;1.50;1.40;;;;;;;5.10;97.15;101728.09;4952888;28;20057;-54
2023/03/03 09:00:46;;;;;;;2.75;1.00;;;;;;;5.00;97.50;101736.25;4930708;29;20711;-51
2023/03/03 09:03:15;;;;;;;1.85;0.85;;;;;;;4.91;97.93;101739.84;4951132;28;20034;-51
2023/03/03 09:05:40;;;;;;;2.40;2.20;;;;;;;5.00;97.05;101733.56;4947920;28;20042;-50
2023/03/03 09:08:07;;;;;;;1.70;1.08;;;;;;;4.90;97.46;101735.59;4950949;28;20031;-52
2023/03/03 09:10:34;;;;;;;0.70;0.70;;;;;;;4.86;98.43;101740.72;4930992;29;20427;-53
2023/03/03 09:13:06;;;;;;;1.42;1.02;;;;;;;4.81;98.44;101738.13;4951821;28;20156;-50
2023/03/03 09:15:36;;;;;;;2.10;1.77;;;;;;;4.99;97.39;101750.69;4953269;28;20086;-52
2023/03/03 09:18:14;;;;;;;1.75;1.38;;;;;;;4.98;97.53;101748.28;4950097;28;20040;-54
2023/03/03 09:20:40;;;;;;;1.00;1.00;;;;;;;5.05;97.51;101740.72;4945809;28;20448;-51
2023/03/03 09:23:47;;;;;;;3.67;1.38;;;;;;;4.85;97.58;101741.81;4942925;28;20107;-52
2023/03/03 09:26:21;;;;;;;1.25;1.17;;;;;;;4.82;98.68;101745.03;4948214;28;20027;-53
2023/03/03 09:28:47;;;;;;;0.73;0.63;;;;;;;4.83;98.84;101746.63;4945815;28;20039;-53
2023/03/03 09:31:35;;;;;;;0.95;0.90;;;;;;;4.70;99.67;101739.38;4945028;28;20376;-50
2023/03/03 09:34:02;;;;;;;1.65;1.25;;;;;;;4.77;99.98;101744.31;4939165;28;20470;-50
2023/03/03 09:36:35;;;;;;;2.28;1.35;;;;;;;4.75;100.00;101747.28;4931582;29;20125;-51
2023/03/03 09:39:16;;;;;;;1.73;1.02;;;;;;;4.91;99.67;101758.53;4945238;29;20453;-52
2023/03/03 09:42:01;;;;;;;4.00;1.10;;;;;;;5.08;98.52;101750.78;4930364;29;20035;-52
2023/03/03 09:44:29;;;;;;;0.73;0.73;;;;;;;5.12;98.65;101755.28;4950312;28;20091;-51
2023/03/03 09:46:55;;;;;;;1.23;0.98;;;;;;;4.95;98.66;101760.34;4949881;28;20046;-48
2023/03/03 09:49:40;;;;;;;0.65;0.63;;;;;;;5.18;98.60;101761.31;4950015;28;20039;-53
2023/03/03 09:52:20;;;;;;;0.80;0.80;;;;;;;5.17;98.29;101762.41;4946351;29;20034;-51
2023/03/03 09:54:51;;;;;;;2.78;1.75;;;;;;;4.85;99.74;101755.16;4949788;28;20066;-51
2023/03/03 09:57:26;;;;;;;1.52;1.40;;;;;;;4.77;100.00;101753.13;4942776;29;20031;-54
2023/03/03 10:00:34;;;;;;;0.85;0.75;;;;;;;4.88;100.00;101759.13;4939593;29;20188;-52
2023/03/03 10:03:14;;;;;;;1.10;1.10;;;;;;;5.07;100.00;101767.91;4898152;28;20462;-49
2023/03/03 10:05:50;;;;;;;0.55;0.55;;;;;;;5.07;100.00;101768.69;4943049;28;20040;-48
2023/03/03 10:08:41;;;;;;;1.50;1.38;;;;;;;5.10;100.00;101752.09;4946156;29;20190;-46
2023/03/03 10:11:38;;;;;;;1.80;1.70;;;;;;;5.06;100.00;101766.31;4951814;28;20035;-54
2023/03/03 10:14:14;;;;;;;3.53;1.65;;;;;;;5.05;100.00;101770.84;4941080;28;20054;-52
2023/03/03 10:16:47;;;;;;;1.52;1.38;;;;;;;4.94;100.00;101772.09;4937855;29;20082;-53
2023/03/03 10:19:37;;;;;;;0.93;0.70;;;;;;;5.06;100.00;101769.78;4929333;29;20557;-53
2023/03/03 10:22:19;;;;;;;1.50;1.27;;;;;;;5.04;100.00;101768.47;4929866;29;20047;-50
2023/03/03 10:25:14;;;;;;;1.35;1.15;;;;;;;5.18;100.00;101759.47;4949769;28;20031;-52
2023/03/03 10:27:59;;;;;;;0.77;0.77;;;;;;;5.26;99.57;101756.13;4949073;28;20082;-54
2023/03/03 10:30:57;;;;;;;1.77;1.42;;;;;;;5.37;99.18;101756.75;4946967;28;20074;-51
2023/03/03 10:34:07;;;;;;;1.52;1.23;;;;;;;5.59;97.94;101756.91;4944077;28;20093;-53
2023/03/03 10:37:01;;;;;;;1.98;1.10;;;;;;;5.34;98.38;101755.44;4872908;29;20476;-53
2023/03/03 10:39:39;;;;;;;1.98;1.15;;;;;;;5.62;97.57;101750.16;4947301;28;20487;-48
2023/03/03 10:42:10;;;;;;;2.00;1.83;;;;;;;5.63;97.47;101751.75;4914717;29;20043;-49
2023/03/03 10:45:02;;;;;;;1.23;1.20;;;;;;;5.62;96.69;101753.63;4940804;28;20049;-48
2023/03/03 10:47:48;;;;;;;1.55;1.45;;;;;;;5.62;97.63;101747.50;4948044;28;20027;-55
2023/03/03 10:50:19;;;;;;;1.13;1.08;;;;;;;5.50;97.49;101746.09;4930774;29;20374;-48
2023/03/03 10:52:51;;;;;;;;;;;;;;;5.35;98.96;101746.34;4947294;29;20031;-52
2023/03/03 10:55:35;;;;;;;1.20;1.20;;;;;;;5.50;98.96;101746.09;4941528;28;20337;-53
2023/03/03 10:58:31;;;;;;;1.40;1.15;;;;;;;5.43;99.16;101745.69;4946208;28;20070;-54
2023/03/03 11:01:15;;;;;;;2.70;0.77;;;;;;;5.61;99.24;101745.94;4942343;28;20390;-50
2023/03/03 11:04:00;;;;;;;1.60;1.50;;;;;;;5.84;98.19;101753.00;4943405;28;20047;-55
2023/03/03 11:06:43;;;;;;;1.02;0.98;;;;;;;5.87;97.73;101753.22;4947628;29;20665;-54
2023/03/03 11:09:23;;;;;;;0.88;0.88;;;;;;;5.72;97.78;101747.31;4927133;29;20122;-50
2023/03/03 11:12:02;;;;;;;0.80;0.80;;;;;;;5.57;99.27;101726.22;4944707;28;20041;-55
2023/03/03 11:14:53;;;;;;;1.50;1.45;;;;;;;5.88;98.94;101732.63;4945798;28;20039;-51
2023/03/03 11:17:19;;;;;;;;;;;;;;;6.08;97.80;101730.34;4945945;28;20062;-53
2023/03/03 11:20:08;;;;;;;0.45;0.45;;;;;;;6.00;97.79;101722.25;4945696;28;19965;-50
2023/03/03 11:22:46;;;;;;;0.50;0.50;;;;;;;5.92;98.07;101714.91;4944763;28;20038;-53
2023/03/03 11:25:24;;;;;;;1.95;0.80;;;;;;;6.19;97.62;101720.25;4946119;28;20122;-55
2023/03/03 11:28:02;;;;;;;2.15;1.45;;;;;;;6.45;96.30;101720.50;4946368;28;20406;-53
2023/03/03 11:30:49;;;;;;;2.58;0.98;;;;;;;6.43;95.23;101720.03;4931992;29;20032;-56
2023/03/03 11:33:40;;;;;;;1.25;1.00;;;;;;;6.21;95.90;101702.81;4938997;28;20035;-52
2023/03/03 11:36:14;;;;;;;1.65;1.55;;;;;;;6.13;95.90;101716.91;4942496;28;20134;-55
2023/03/03 11:38:50;;;;;;;3.60;2.40;;;;;;;6.49;95.62;101710.78;4935867;28;20141;-53
2023/03/03 11:41:34;;;;;;;2.28;0.75;;;;;;;6.26;95.35;101709.94;4934462;28;20957;-50
2023/03/03 11:44:23;;;;;;;1.58;1.45;;;;;;;6.42;94.88;101715.75;4912057;28;20043;-51
2023/03/03 11:46:55;;;;;;;1.23;1.13;;;;;;;6.06;95.81;101703.13;4940811;28;20431;-54
2023/03/03 11:49:35;;;;;;;0.85;0.85;;;;;;;6.21;96.59;101702.03;4920482;28;20035;-55